Time;durP1;ratioP1;P1;durP2;ratioP2;P2;SDS_P1;SDS_P2;PMS_P1;PMS_P2;Temp;Humidity;BMP_temperature;BMP_pressure;BME280_temperature;BME280_humidity;BME280_pressure;Samples;Min_cycle;Max_cycle;Signal;HPM_P1;HPM_P2
2021/01/14 00:02:04;;;;;;;3.67;1.00;;;11.50;59.00;;;;;;5073141;28;20457;-51
2021/01/14 00:04:31;;;;;;;1.33;0.90;;;11.40;59.30;;;;;;5072602;28;20472;-53
2021/01/14 00:06:58;;;;;;;3.37;1.47;;;11.50;59.30;;;;;;5073029;28;20500;-53
2021/01/14 00:09:25;;;;;;;2.03;0.97;;;11.50;59.30;;;;;;5072851;28;20465;-50
2021/01/14 00:11:52;;;;;;;2.20;0.90;;;11.50;59.30;;;;;;5072649;28;20524;-53
2021/01/14 00:14:19;;;;;;;2.23;1.00;;;11.40;59.30;;;;;;5072921;28;20465;-50
2021/01/14 00:16:46;;;;;;;2.67;1.20;;;11.50;59.40;;;;;;5072950;28;20503;-53
2021/01/14 00:19:15;;;;;;;2.30;1.17;;;11.50;59.40;;;;;;5077952;28;20438;-52
2021/01/14 00:21:43;;;;;;;1.70;1.20;;;11.50;59.40;;;;;;5112826;28;20439;-52
2021/01/14 00:24:10;;;;;;;1.10;1.00;;;11.50;59.40;;;;;;5107936;28;20455;-49
2021/01/14 00:26:37;;;;;;;3.43;1.13;;;11.50;59.50;;;;;;5113518;28;20436;-54
2021/01/14 00:29:04;;;;;;;2.30;1.20;;;11.50;59.60;;;;;;5090963;28;20610;-53
2021/01/14 00:31:33;;;;;;;3.10;1.07;;;11.40;59.60;;;;;;5072405;28;20468;-50
2021/01/14 00:34:00;;;;;;;2.90;0.90;;;11.50;59.70;;;;;;5072100;28;20441;-49
2021/01/14 00:37:50;;;;;;;1.73;1.10;;;11.40;59.80;;;;;;5072933;28;20479;-52
2021/01/14 00:39:20;;;;;;;5.80;1.33;;;11.30;59.80;;;;;;5072519;28;20469;-50
2021/01/14 00:41:47;;;;;;;3.13;1.53;;;11.40;59.80;;;;;;5071907;28;20510;-54
2021/01/14 00:44:14;;;;;;;2.63;1.17;;;11.30;59.80;;;;;;5071832;28;20511;-54
2021/01/14 00:46:41;;;;;;;1.73;1.00;;;11.30;59.90;;;;;;5083211;28;20440;-53
2021/01/14 00:49:08;;;;;;;1.30;1.20;;;11.40;60.00;;;;;;5092932;28;20432;-51
2021/01/14 00:51:36;;;;;;;2.30;1.00;;;11.40;59.90;;;;;;5092396;28;20449;-51
2021/01/14 00:54:03;;;;;;;1.53;0.90;;;11.40;59.70;;;;;;5092536;28;20455;-52
2021/01/14 00:56:32;;;;;;;2.47;1.10;;;11.40;59.90;;;;;;5073716;28;20465;-50
2021/01/14 00:59:00;;;;;;;4.40;1.00;;;11.30;59.90;;;;;;5072549;28;20445;-53
2021/01/14 01:01:26;;;;;;;2.23;1.33;;;11.40;59.90;;;;;;5072359;28;20442;-53
2021/01/14 01:03:53;;;;;;;3.47;1.30;;;11.30;60.00;;;;;;5072436;28;20434;-50
2021/01/14 01:06:21;;;;;;;2.10;1.13;;;11.30;60.20;;;;;;5072224;28;20438;-55
2021/01/14 01:08:49;;;;;;;4.87;1.20;;;11.30;60.20;;;;;;5072247;28;20512;-54
2021/01/14 01:11:16;;;;;;;1.80;1.00;;;11.30;60.30;;;;;;5071761;28;20503;-52
2021/01/14 01:13:43;;;;;;;1.83;0.90;;;11.30;60.40;;;;;;5101698;28;20436;-52
2021/01/14 01:16:15;;;;;;;1.43;1.00;;;11.20;61.10;;;;;;5115078;28;20468;-53
2021/01/14 01:18:42;;;;;;;1.93;1.00;;;11.20;60.50;;;;;;5117090;28;20469;-51
2021/01/14 01:21:09;;;;;;;1.93;1.00;;;11.30;60.40;;;;;;5113812;28;20437;-52
2021/01/14 01:23:36;;;;;;;5.63;1.10;;;11.20;60.60;;;;;;5096503;28;20440;-53
2021/01/14 01:26:04;;;;;;;2.40;1.10;;;11.20;60.70;;;;;;5091143;28;20464;-53
2021/01/14 01:28:31;;;;;;;1.70;1.33;;;11.20;60.70;;;;;;5096838;28;20437;-54
2021/01/14 01:30:58;;;;;;;1.87;1.07;;;11.10;60.80;;;;;;5085817;28;20500;-54
2021/01/14 01:33:25;;;;;;;2.40;1.00;;;11.20;60.70;;;;;;5075649;28;20441;-55
2021/01/14 01:35:52;;;;;;;5.30;1.30;;;11.20;60.70;;;;;;5075742;28;20550;-53
2021/01/14 01:38:19;;;;;;;1.87;1.00;;;11.20;60.70;;;;;;5075964;28;20453;-51
2021/01/14 01:40:56;;;;;;;1.93;1.10;;;11.20;60.80;;;;;;5113781;28;20460;-51
2021/01/14 01:43:24;;;;;;;1.10;1.00;;;11.20;60.70;;;;;;5116307;28;20446;-52
2021/01/14 01:45:53;;;;;;;1.03;1.00;;;11.20;60.80;;;;;;5116079;28;20439;-52
2021/01/14 01:48:20;;;;;;;3.40;1.00;;;11.20;60.50;;;;;;5116111;28;20440;-49
2021/01/14 01:50:48;;;;;;;4.77;1.00;;;11.20;60.70;;;;;;5116316;28;20435;-51
2021/01/14 01:53:15;;;;;;;1.10;1.00;;;11.20;60.60;;;;;;5115880;27;20517;-55
2021/01/14 01:55:43;;;;;;;2.63;1.00;;;11.20;60.60;;;;;;5116076;28;20480;-56
2021/01/14 01:58:10;;;;;;;3.50;1.10;;;11.30;60.40;;;;;;5115137;28;20459;-52
2021/01/14 02:00:38;;;;;;;1.20;1.10;;;11.30;60.40;;;;;;5116099;28;20475;-53
2021/01/14 02:03:05;;;;;;;1.63;1.00;;;11.20;60.50;;;;;;5115485;27;20444;-50
2021/01/14 02:05:33;;;;;;;2.77;1.10;;;11.20;60.60;;;;;;5114684;28;20428;-50
2021/01/14 02:08:06;;;;;;;2.00;0.93;;;11.20;60.60;;;;;;5115491;28;20502;-56
2021/01/14 02:10:35;;;;;;;2.10;1.30;;;11.20;60.70;;;;;;5116258;27;20432;-56
2021/01/14 02:13:07;;;;;;;1.20;1.10;;;11.20;60.60;;;;;;5115433;28;20509;-51
2021/01/14 02:15:33;;;;;;;0.90;0.90;;;11.20;60.70;;;;;;5088375;28;20473;-52
2021/01/14 02:18:01;;;;;;;1.93;1.00;;;11.10;60.80;;;;;;5074766;28;20445;-53
2021/01/14 02:20:28;;;;;;;1.87;1.00;;;11.20;60.90;;;;;;5075259;28;20438;-51
2021/01/14 02:22:58;;;;;;;1.60;1.20;;;11.10;60.80;;;;;;5074959;28;20465;-51
2021/01/14 02:25:26;;;;;;;1.77;1.00;;;11.10;60.90;;;;;;5075218;28;20422;-50
2021/01/14 02:27:54;;;;;;;1.90;1.20;;;11.10;60.80;;;;;;5077204;28;20513;-54
2021/01/14 02:30:21;;;;;;;1.80;1.00;;;11.10;60.90;;;;;;5085619;28;20472;-52
2021/01/14 02:32:48;;;;;;;1.30;1.20;;;11.10;60.80;;;;;;5090812;28;20428;-54
2021/01/14 02:35:16;;;;;;;1.77;0.90;;;11.10;60.70;;;;;;5083329;28;20473;-52
2021/01/14 02:37:43;;;;;;;1.83;1.10;;;11.10;60.80;;;;;;5073592;28;20492;-53
2021/01/14 02:40:11;;;;;;;1.20;1.10;;;11.10;60.90;;;;;;5073986;28;20475;-50
2021/01/14 02:42:39;;;;;;;1.93;1.00;;;11.00;60.90;;;;;;5074075;28;20438;-52
2021/01/14 02:45:08;;;;;;;1.40;1.30;;;11.10;60.70;;;;;;5073638;28;20445;-56
2021/01/14 02:47:35;;;;;;;0.90;0.90;;;11.00;61.00;;;;;;5073509;28;20429;-53
2021/01/14 02:50:04;;;;;;;1.43;1.00;;;11.00;60.80;;;;;;5073528;28;20434;-49
2021/01/14 02:52:31;;;;;;;2.70;0.87;;;11.00;60.80;;;;;;5072875;28;20437;-51
2021/01/14 02:54:58;;;;;;;3.50;1.13;;;11.00;60.60;;;;;;5073550;28;20576;-52
2021/01/14 02:57:25;;;;;;;1.17;0.97;;;11.00;60.60;;;;;;5073734;28;20426;-51
2021/01/14 02:59:53;;;;;;;1.57;1.00;;;11.00;60.80;;;;;;5074536;28;20449;-55
2021/01/14 03:02:20;;;;;;;3.00;0.80;;;10.90;60.70;;;;;;5073594;28;20499;-49
2021/01/14 03:04:47;;;;;;;0.90;0.73;;;11.00;60.70;;;;;;5074530;28;20473;-55
2021/01/14 03:07:15;;;;;;;1.47;1.23;;;11.00;60.50;;;;;;5074122;28;20449;-55
2021/01/14 03:09:42;;;;;;;2.20;1.27;;;10.90;60.50;;;;;;5074014;28;20490;-55
2021/01/14 03:12:09;;;;;;;0.90;0.83;;;10.90;60.60;;;;;;5073667;28;20682;-54
2021/01/14 03:14:36;;;;;;;1.40;1.30;;;10.90;60.60;;;;;;5074633;28;20506;-52
2021/01/14 03:17:03;;;;;;;1.77;1.00;;;10.90;60.70;;;;;;5074893;28;20455;-52
2021/01/14 03:19:31;;;;;;;1.00;1.00;;;10.90;60.70;;;;;;5073772;28;20507;-53
2021/01/14 03:22:01;;;;;;;1.90;1.10;;;10.90;60.60;;;;;;5073518;28;20483;-51
2021/01/14 03:24:28;;;;;;;1.33;1.03;;;10.80;60.60;;;;;;5073954;28;20446;-55
2021/01/14 03:26:55;;;;;;;1.80;1.30;;;10.80;60.70;;;;;;5074309;28;20469;-51
2021/01/14 03:29:22;;;;;;;1.43;0.90;;;10.70;60.70;;;;;;5073447;28;20438;-54
2021/01/14 03:31:49;;;;;;;2.07;1.20;;;10.80;60.70;;;;;;5073103;28;20564;-53
2021/01/14 03:34:16;;;;;;;1.10;0.90;;;10.80;60.50;;;;;;5074046;28;20503;-54
2021/01/14 03:36:57;;;;;;;1.90;1.17;;;10.80;60.70;;;;;;5073608;28;20512;-51
2021/01/14 03:39:24;;;;;;;2.07;1.03;;;10.70;60.60;;;;;;5072593;28;20442;-54
2021/01/14 03:41:51;;;;;;;1.27;0.97;;;10.70;60.70;;;;;;5072755;28;20491;-53
2021/01/14 03:44:18;;;;;;;1.33;0.90;;;10.70;60.70;;;;;;5074774;28;20480;-52
2021/01/14 03:46:46;;;;;;;2.53;1.00;;;10.70;60.80;;;;;;5088119;28;20437;-52
2021/01/14 03:49:13;;;;;;;1.20;0.80;;;10.70;61.10;;;;;;5093407;28;20465;-53
2021/01/14 03:51:40;;;;;;;1.00;0.90;;;10.70;61.10;;;;;;5090278;28;20509;-54
2021/01/14 03:54:08;;;;;;;0.90;0.90;;;10.70;61.20;;;;;;5093480;28;20539;-54
2021/01/14 03:56:38;;;;;;;1.43;0.80;;;10.70;61.40;;;;;;5093533;28;20468;-55
2021/01/14 03:59:05;;;;;;;2.50;1.00;;;10.70;61.50;;;;;;5093509;28;20449;-55
2021/01/14 04:01:32;;;;;;;1.13;1.03;;;10.70;61.80;;;;;;5081163;28;20446;-48
2021/01/14 04:03:59;;;;;;;2.30;1.10;;;10.70;61.80;;;;;;5073253;28;20441;-53
2021/01/14 04:06:33;;;;;;;2.27;1.00;;;10.70;61.90;;;;;;5073417;28;20437;-49
2021/01/14 04:09:00;;;;;;;1.03;0.93;;;10.60;61.90;;;;;;5073132;28;20445;-51
2021/01/14 04:11:28;;;;;;;1.17;0.90;;;10.70;61.90;;;;;;5072615;28;20468;-50
2021/01/14 04:13:55;;;;;;;0.90;0.90;;;10.60;62.00;;;;;;5073112;28;20441;-50
2021/01/14 04:16:22;;;;;;;1.20;1.10;;;10.70;61.90;;;;;;5073045;28;20487;-50
2021/01/14 04:18:49;;;;;;;1.50;0.90;;;10.70;61.80;;;;;;5073576;28;20438;-51
2021/01/14 04:21:16;;;;;;;1.80;1.37;;;10.70;61.90;;;;;;5072386;28;20449;-50
2021/01/14 04:23:43;;;;;;;2.00;1.17;;;10.70;61.90;;;;;;5072843;28;20473;-50
2021/01/14 04:26:10;;;;;;;2.40;1.10;;;10.80;61.90;;;;;;5072806;28;20488;-54
2021/01/14 04:28:38;;;;;;;1.67;1.10;;;10.80;62.50;;;;;;5088694;28;20437;-51
2021/01/14 04:31:05;;;;;;;1.00;0.90;;;10.70;62.00;;;;;;5093190;28;20480;-53
2021/01/14 04:33:32;;;;;;;1.50;1.00;;;10.70;62.00;;;;;;5092706;28;20437;-54
2021/01/14 04:36:00;;;;;;;1.00;1.00;;;10.70;62.10;;;;;;5089467;28;20462;-50
2021/01/14 04:38:28;;;;;;;1.77;1.20;;;10.70;62.30;;;;;;5072929;28;20567;-53
2021/01/14 04:40:55;;;;;;;1.10;0.97;;;10.70;62.00;;;;;;5071877;28;20466;-55
2021/01/14 04:43:23;;;;;;;1.20;1.07;;;10.70;62.20;;;;;;5071110;28;20469;-53
2021/01/14 04:45:53;;;;;;;3.43;1.00;;;10.70;62.20;;;;;;5072703;28;20469;-52
2021/01/14 04:48:20;;;;;;;1.20;1.10;;;10.70;62.40;;;;;;5072845;28;20461;-53
2021/01/14 04:50:47;;;;;;;1.40;1.10;;;10.70;62.20;;;;;;5072683;28;20457;-53
2021/01/14 04:53:18;;;;;;;1.10;1.10;;;10.70;62.40;;;;;;5071645;28;20464;-54
2021/01/14 04:55:45;;;;;;;4.57;1.40;;;10.70;62.40;;;;;;5072836;28;20535;-54
2021/01/14 04:58:15;;;;;;;2.10;1.00;;;10.70;62.40;;;;;;5072652;28;20495;-54
2021/01/14 05:00:46;;;;;;;1.10;1.00;;;10.70;62.40;;;;;;5078570;28;20535;-51
2021/01/14 05:03:14;;;;;;;2.73;1.40;;;10.70;62.50;;;;;;5082711;28;20432;-52
2021/01/14 05:05:41;;;;;;;1.30;1.20;;;10.70;62.40;;;;;;5092356;28;20459;-50
2021/01/14 05:08:08;;;;;;;1.00;1.00;;;10.70;62.40;;;;;;5092565;28;20458;-54
2021/01/14 05:10:37;;;;;;;1.20;1.07;;;10.80;62.50;;;;;;5092990;28;20447;-51
2021/01/14 05:13:04;;;;;;;1.10;1.10;;;10.70;62.40;;;;;;5074497;28;20441;-53
2021/01/14 05:15:31;;;;;;;1.10;1.00;;;10.70;62.50;;;;;;5072103;28;20530;-51
2021/01/14 05:17:59;;;;;;;1.30;1.20;;;10.70;62.70;;;;;;5072195;28;20438;-52
2021/01/14 05:20:26;;;;;;;4.17;1.30;;;10.80;62.60;;;;;;5072251;28;20460;-52
2021/01/14 05:22:57;;;;;;;1.33;1.23;;;10.70;62.50;;;;;;5071506;28;20502;-51
2021/01/14 05:25:24;;;;;;;1.50;1.40;;;10.80;62.60;;;;;;5072568;28;20434;-49
2021/01/14 05:27:51;;;;;;;1.47;1.37;;;10.80;62.40;;;;;;5072247;28;20442;-54
2021/01/14 05:30:18;;;;;;;3.10;1.37;;;10.80;62.50;;;;;;5072451;28;20445;-53
2021/01/14 05:32:46;;;;;;;1.47;1.37;;;10.80;62.50;;;;;;5071247;28;20477;-53
2021/01/14 05:35:16;;;;;;;3.10;1.17;;;10.80;62.70;;;;;;5072090;28;20566;-54
2021/01/14 05:37:44;;;;;;;1.20;1.10;;;10.80;62.60;;;;;;5072460;28;20449;-56
2021/01/14 05:40:13;;;;;;;1.90;1.40;;;10.80;62.50;;;;;;5071942;28;20499;-52
2021/01/14 05:42:40;;;;;;;4.40;1.40;;;10.80;62.60;;;;;;5071547;28;20599;-55
2021/01/14 05:45:21;;;;;;;2.20;1.30;;;10.70;62.60;;;;;;5071556;28;20474;-52
2021/01/14 05:47:48;;;;;;;2.50;1.30;;;10.80;62.70;;;;;;5072025;28;20465;-54
2021/01/14 05:50:15;;;;;;;1.87;1.20;;;10.70;62.60;;;;;;5072537;28;20442;-53
2021/01/14 05:52:41;;;;;;;1.33;1.23;;;10.80;62.70;;;;;;5071376;28;20437;-52
2021/01/14 05:55:10;;;;;;;1.13;1.07;;;10.80;62.50;;;;;;5071924;28;20480;-52
2021/01/14 05:57:38;;;;;;;1.67;1.57;;;10.80;62.60;;;;;;5072352;28;20491;-55
2021/01/14 06:00:10;;;;;;;2.13;1.50;;;10.80;62.80;;;;;;5071929;28;20440;-53
2021/01/14 06:02:36;;;;;;;1.97;1.77;;;10.80;62.60;;;;;;5074025;28;20434;-55
2021/01/14 06:05:04;;;;;;;2.47;1.57;;;10.80;62.60;;;;;;5083503;28;20437;-53
2021/01/14 06:07:38;;;;;;;3.60;1.40;;;10.80;62.60;;;;;;5095769;28;20460;-51
2021/01/14 06:10:06;;;;;;;1.50;1.40;;;10.80;62.70;;;;;;5095448;28;20468;-52
2021/01/14 06:12:34;;;;;;;1.87;1.77;;;10.80;62.80;;;;;;5095195;28;20577;-54
2021/01/14 06:15:03;;;;;;;2.17;1.50;;;10.80;62.90;;;;;;5077983;28;20434;-49
2021/01/14 06:17:33;;;;;;;1.57;1.30;;;10.80;62.90;;;;;;5075439;28;20441;-52
2021/01/14 06:20:06;;;;;;;2.07;1.87;;;10.80;62.70;;;;;;5075609;28;20540;-56
2021/01/14 06:22:35;;;;;;;1.73;1.33;;;10.80;62.80;;;;;;5087996;28;20467;-55
2021/01/14 06:25:04;;;;;;;2.47;1.73;;;10.80;62.90;;;;;;5115464;28;20431;-55
2021/01/14 06:27:31;;;;;;;1.57;1.47;;;10.80;62.90;;;;;;5114910;28;20443;-54
2021/01/14 06:30:05;;;;;;;1.53;1.43;;;10.80;63.00;;;;;;5115390;28;20539;-56
2021/01/14 06:32:33;;;;;;;2.23;1.80;;;10.70;63.00;;;;;;5083000;28;20442;-56
2021/01/14 06:35:00;;;;;;;2.10;1.63;;;10.80;63.00;;;;;;5074319;28;20446;-56
2021/01/14 06:37:27;;;;;;;1.87;1.77;;;10.80;62.90;;;;;;5074766;28;20433;-56
2021/01/14 06:39:55;;;;;;;2.50;1.70;;;10.90;62.90;;;;;;5075173;28;20473;-56
2021/01/14 06:42:23;;;;;;;2.53;1.60;;;10.90;62.90;;;;;;5074150;28;20501;-55
2021/01/14 06:44:57;;;;;;;2.47;1.73;;;10.80;63.10;;;;;;5079916;28;20502;-51
2021/01/14 06:47:35;;;;;;;1.60;1.50;;;10.80;63.20;;;;;;5094431;28;20429;-50
2021/01/14 06:50:22;;;;;;;2.60;1.80;;;10.80;63.10;;;;;;5091061;28;20444;-48
2021/01/14 06:52:54;;;;;;;1.90;1.80;;;10.80;62.90;;;;;;5094530;28;20483;-50
2021/01/14 06:55:22;;;;;;;1.60;1.50;;;10.80;63.10;;;;;;5094805;28;20445;-54
2021/01/14 06:58:04;;;;;;;1.83;1.73;;;10.80;63.10;;;;;;5099656;28;20432;-52
2021/01/14 07:00:31;;;;;;;1.90;1.80;;;10.90;62.90;;;;;;5115173;28;20480;-55
2021/01/14 07:03:18;;;;;;;2.17;1.60;;;10.80;63.00;;;;;;5114860;28;20464;-53
2021/01/14 07:06:07;;;;;;;1.80;1.70;;;10.80;63.20;;;;;;5115117;28;20424;-49
2021/01/14 07:08:37;;;;;;;1.87;1.60;;;10.80;63.20;;;;;;5074112;28;20430;-51
2021/01/14 07:11:06;;;;;;;3.70;1.97;;;10.80;63.20;;;;;;5074762;28;20511;-53
2021/01/14 07:13:34;;;;;;;1.70;1.60;;;10.80;63.30;;;;;;5074259;28;20426;-47
2021/01/14 07:16:01;;;;;;;2.83;2.00;;;10.80;63.20;;;;;;5092625;28;20471;-53
2021/01/14 07:18:29;;;;;;;2.43;1.70;;;10.80;63.20;;;;;;5114553;27;20447;-49
2021/01/14 07:21:03;;;;;;;2.33;1.80;;;10.80;63.20;;;;;;5114489;28;20440;-50
2021/01/14 07:23:31;;;;;;;2.13;1.90;;;10.80;63.20;;;;;;5115001;27;20464;-51
2021/01/14 07:25:58;;;;;;;1.70;1.60;;;10.90;63.10;;;;;;5113990;28;20439;-49
2021/01/14 07:28:25;;;;;;;1.83;1.73;;;10.90;63.00;;;;;;5114558;28;20471;-51
2021/01/14 07:30:52;;;;;;;1.90;1.80;;;10.90;63.00;;;;;;5114539;28;20432;-49
2021/01/14 07:33:26;;;;;;;4.40;2.10;;;10.90;63.10;;;;;;5102419;27;20437;-51
2021/01/14 07:35:55;;;;;;;3.87;1.70;;;10.90;63.20;;;;;;5073350;28;20473;-51
2021/01/14 07:38:23;;;;;;;2.30;2.10;;;10.80;63.10;;;;;;5073828;28;20506;-47
2021/01/14 07:40:59;;;;;;;2.37;2.17;;;10.90;63.10;;;;;;5073627;28;20433;-50
2021/01/14 07:43:31;;;;;;;2.13;1.93;;;10.90;63.30;;;;;;5073709;28;20568;-49
2021/01/14 07:46:23;;;;;;;2.10;1.97;;;10.90;63.30;;;;;;5073630;28;20426;-50
2021/01/14 07:48:50;;;;;;;1.90;1.80;;;10.80;63.50;;;;;;5073402;28;20442;-53
2021/01/14 07:51:19;;;;;;;2.20;2.00;;;10.80;63.50;;;;;;5081171;28;20441;-49
2021/01/14 07:54:06;;;;;;;2.50;2.00;;;10.90;63.30;;;;;;5093433;28;20510;-50
2021/01/14 07:56:44;;;;;;;2.07;1.83;;;10.90;63.20;;;;;;5093860;28;20502;-51
2021/01/14 07:59:11;;;;;;;1.97;1.87;;;10.90;63.20;;;;;;5093151;28;20475;-49
2021/01/14 08:02:00;;;;;;;3.33;2.30;;;10.90;63.30;;;;;;5072714;28;20437;-50
2021/01/14 08:04:27;;;;;;;4.03;2.00;;;10.90;63.40;;;;;;5073152;28;20437;-49
2021/01/14 08:06:55;;;;;;;1.70;1.60;;;10.90;63.50;;;;;;5073061;28;20433;-52
2021/01/14 08:09:22;;;;;;;2.70;2.50;;;10.90;63.40;;;;;;5073102;28;20430;-46
2021/01/14 08:11:58;;;;;;;2.53;1.93;;;10.90;63.30;;;;;;5072479;28;20461;-49
2021/01/14 08:14:38;;;;;;;2.27;1.90;;;10.90;63.30;;;;;;5073285;28;20426;-49
2021/01/14 08:17:20;;;;;;;2.47;2.27;;;10.90;63.20;;;;;;5073019;28;20499;-46
2021/01/14 08:19:47;;;;;;;2.13;2.03;;;10.90;63.30;;;;;;5072668;28;20448;-49
2021/01/14 08:22:15;;;;;;;2.23;2.03;;;10.90;63.50;;;;;;5072915;28;20434;-53
2021/01/14 08:24:46;;;;;;;1.73;1.63;;;11.00;63.30;;;;;;5072617;28;20468;-48
2021/01/14 08:27:23;;;;;;;3.60;2.10;;;11.00;63.20;;;;;;5073617;28;20475;-50
2021/01/14 08:29:56;;;;;;;2.40;2.07;;;11.00;63.20;;;;;;5072459;28;20711;-53
2021/01/14 08:32:30;;;;;;;2.63;2.23;;;11.00;63.20;;;;;;5081847;28;20432;-48
2021/01/14 08:34:58;;;;;;;2.23;2.03;;;11.00;63.20;;;;;;5085373;28;20444;-47
2021/01/14 08:37:34;;;;;;;2.30;2.10;;;11.10;63.10;;;;;;5093532;28;20541;-49
2021/01/14 08:40:04;;;;;;;2.17;2.00;;;11.10;63.00;;;;;;5094014;28;20464;-48
2021/01/14 08:42:35;;;;;;;2.60;2.40;;;11.00;63.00;;;;;;5092967;28;20432;-48
2021/01/14 08:45:13;;;;;;;1.97;1.80;;;11.00;63.20;;;;;;5107145;28;20510;-47
2021/01/14 08:48:00;;;;;;;2.27;2.07;;;11.00;63.30;;;;;;5114006;28;20496;-48
2021/01/14 08:50:34;;;;;;;2.83;1.97;;;11.00;63.50;;;;;;5113654;28;20500;-52
2021/01/14 08:53:03;;;;;;;2.00;1.87;;;11.00;63.30;;;;;;5112567;28;20435;-47
2021/01/14 08:55:30;;;;;;;2.63;2.00;;;11.00;63.30;;;;;;5114099;28;20568;-58
2021/01/14 08:57:57;;;;;;;7.13;3.80;;;11.00;64.20;;;;;;5114124;28;20505;-45
2021/01/14 09:00:24;;;;;;;7.00;4.30;;;12.20;57.80;;;;;;5113762;28;20500;-47
2021/01/14 09:02:51;;;;;;;6.17;4.50;;;12.10;50.30;;;;;;5112582;28;20474;-52
2021/01/14 09:05:18;;;;;;;6.33;3.70;;;12.40;48.40;;;;;;5113729;28;20539;-52
2021/01/14 09:08:09;;;;;;;5.37;4.27;;;12.40;46.60;;;;;;5113692;28;20428;-46
2021/01/14 09:10:47;;;;;;;7.53;4.87;;;12.00;46.50;;;;;;5102945;28;20442;-47
2021/01/14 09:13:16;;;;;;;8.07;4.90;;;11.50;45.90;;;;;;5072801;28;20425;-52
2021/01/14 09:15:43;;;;;;;6.20;4.10;;;11.20;48.00;;;;;;5073657;28;20479;-50
2021/01/14 09:18:10;;;;;;;5.97;3.90;;;11.50;48.00;;;;;;5073464;28;20520;-48
2021/01/14 09:20:37;;;;;;;5.67;4.37;;;11.70;48.20;;;;;;5102654;28;20452;-47
2021/01/14 09:23:20;;;;;;;9.20;3.77;;;11.80;48.40;;;;;;5113213;28;20443;-49
2021/01/14 09:25:49;;;;;;;5.70;4.20;;;11.70;48.90;;;;;;5113416;28;20436;-52
2021/01/14 09:28:17;;;;;;;8.33;3.87;;;11.70;49.30;;;;;;5113101;28;20436;-52
2021/01/14 09:30:43;;;;;;;6.50;2.90;;;11.60;49.70;;;;;;5113486;28;20440;-54
2021/01/14 09:33:10;;;;;;;5.53;3.60;;;11.60;50.10;;;;;;5112811;28;20470;-52
2021/01/14 09:35:37;;;;;;;5.90;4.10;;;11.60;50.70;;;;;;5113610;28;20432;-49
2021/01/14 09:38:04;;;;;;;17.67;3.80;;;11.50;50.90;;;;;;5116828;28;20501;-49
2021/01/14 09:40:31;;;;;;;7.93;3.50;;;11.60;51.00;;;;;;5117314;28;20476;-50
2021/01/14 09:43:00;;;;;;;4.07;3.07;;;11.70;51.30;;;;;;5116230;28;20444;-53
2021/01/14 09:45:27;;;;;;;4.70;3.30;;;11.60;51.60;;;;;;5116415;28;20460;-51
2021/01/14 09:47:55;;;;;;;4.37;3.33;;;11.60;51.90;;;;;;5117464;28;20535;-52
2021/01/14 09:50:25;;;;;;;5.90;3.43;;;11.60;52.20;;;;;;5117615;28;20416;-54
2021/01/14 09:52:52;;;;;;;4.97;2.83;;;11.60;52.40;;;;;;5116245;28;20443;-51
2021/01/14 09:55:19;;;;;;;3.53;2.90;;;11.70;52.60;;;;;;5116397;28;20466;-49
2021/01/14 09:57:48;;;;;;;4.53;2.97;;;11.70;52.80;;;;;;5117460;28;20523;-49
2021/01/14 10:00:19;;;;;;;4.20;2.90;;;11.70;52.90;;;;;;5117185;28;20465;-52
2021/01/14 10:02:50;;;;;;;4.37;2.90;;;11.70;53.20;;;;;;5116294;28;20436;-51
2021/01/14 10:05:17;;;;;;;3.10;2.63;;;11.60;53.50;;;;;;5098464;28;20444;-51
2021/01/14 10:07:53;;;;;;;3.37;2.70;;;11.80;53.60;;;;;;5096516;28;20476;-52
2021/01/14 10:10:21;;;;;;;3.23;3.03;;;11.80;53.70;;;;;;5096446;28;20509;-51
2021/01/14 10:12:53;;;;;;;3.07;2.87;;;11.80;54.20;;;;;;5089202;28;20499;-52
2021/01/14 10:15:21;;;;;;;2.83;2.43;;;11.90;54.30;;;;;;5076573;28;20442;-51
2021/01/14 10:17:48;;;;;;;6.00;3.10;;;11.90;54.40;;;;;;5075861;28;20430;-51
2021/01/14 10:20:16;;;;;;;2.63;2.43;;;11.90;54.60;;;;;;5075986;28;20515;-52
2021/01/14 10:22:47;;;;;;;3.13;2.67;;;11.90;54.70;;;;;;5075430;28;20484;-49
2021/01/14 10:25:14;;;;;;;7.17;3.13;;;11.80;54.90;;;;;;5075956;28;20449;-49
2021/01/14 10:27:41;;;;;;;5.77;3.07;;;11.90;54.90;;;;;;5075648;28;20583;-53
2021/01/14 10:30:18;;;;;;;3.07;2.83;;;12.00;54.60;;;;;;5076565;28;20500;-51
2021/01/14 10:32:46;;;;;;;3.13;2.50;;;12.00;54.70;;;;;;5074888;28;20453;-52
2021/01/14 10:35:23;;;;;;;2.80;2.27;;;12.00;54.90;;;;;;5075248;28;20453;-52
2021/01/14 10:38:07;;;;;;;6.03;3.00;;;12.10;55.00;;;;;;5075642;28;20443;-53
2021/01/14 10:40:36;;;;;;;10.23;2.50;;;12.10;55.00;;;;;;5076218;28;20449;-53
2021/01/14 10:43:03;;;;;;;3.53;2.70;;;12.10;55.00;;;;;;5075348;28;20475;-51
2021/01/14 10:45:31;;;;;;;3.23;2.57;;;12.10;54.90;;;;;;5075157;28;20449;-48
2021/01/14 10:48:06;;;;;;;4.67;2.70;;;12.10;55.10;;;;;;5075392;28;20492;-48
2021/01/14 10:50:39;;;;;;;7.37;2.67;;;12.10;55.20;;;;;;5075314;28;20445;-51
2021/01/14 10:53:06;;;;;;;2.80;2.60;;;12.10;55.30;;;;;;5074742;28;20446;-51
2021/01/14 10:55:33;;;;;;;2.40;2.20;;;12.20;55.40;;;;;;5074815;28;20491;-51
2021/01/14 10:58:04;;;;;;;2.70;2.50;;;12.20;55.40;;;;;;5105848;28;20439;-50
2021/01/14 11:00:35;;;;;;;3.50;2.20;;;12.30;55.30;;;;;;5115801;28;20428;-48
2021/01/14 11:03:02;;;;;;;2.60;2.40;;;12.30;55.00;;;;;;5115460;28;20505;-51
2021/01/14 11:05:40;;;;;;;2.40;2.30;;;12.30;55.30;;;;;;5115161;28;20423;-49
2021/01/14 11:08:07;;;;;;;2.53;2.33;;;12.30;55.20;;;;;;5115271;28;20526;-52
2021/01/14 11:10:34;;;;;;;3.13;2.50;;;12.40;55.20;;;;;;5115850;28;20479;-51
2021/01/14 11:13:05;;;;;;;3.17;2.70;;;12.50;55.20;;;;;;5115521;28;20463;-49
2021/01/14 11:15:32;;;;;;;2.20;2.00;;;12.50;55.20;;;;;;5115002;28;20436;-53
2021/01/14 11:18:00;;;;;;;2.00;1.90;;;12.60;55.10;;;;;;5115369;28;20493;-49
2021/01/14 11:20:27;;;;;;;2.63;2.43;;;12.70;55.00;;;;;;5115371;28;20432;-49
2021/01/14 11:22:55;;;;;;;2.47;2.27;;;12.80;54.80;;;;;;5114214;27;20463;-51
2021/01/14 11:25:21;;;;;;;3.80;2.53;;;12.80;55.00;;;;;;5115185;28;20443;-50
2021/01/14 11:27:48;;;;;;;4.50;2.40;;;13.00;54.70;;;;;;5115433;28;20475;-49
2021/01/14 11:30:16;;;;;;;2.50;2.30;;;12.90;54.70;;;;;;5115257;28;20508;-51
2021/01/14 11:32:45;;;;;;;5.97;2.50;;;12.90;54.90;;;;;;5096574;28;20529;-53
2021/01/14 11:35:12;;;;;;;2.90;2.57;;;13.00;54.70;;;;;;5074264;28;20453;-50
2021/01/14 11:37:39;;;;;;;3.43;2.80;;;13.00;54.80;;;;;;5074314;28;20441;-49
2021/01/14 11:40:08;;;;;;;5.37;2.43;;;13.00;55.00;;;;;;5074606;28;20438;-48
2021/01/14 11:42:35;;;;;;;5.20;2.20;;;12.90;55.20;;;;;;5091118;28;20522;-55
2021/01/14 11:45:03;;;;;;;2.80;2.50;;;13.00;55.30;;;;;;5094394;28;20429;-47
2021/01/14 11:47:30;;;;;;;2.43;2.23;;;13.10;55.10;;;;;;5094230;28;20534;-49
2021/01/14 11:49:57;;;;;;;3.10;2.50;;;13.10;54.90;;;;;;5089177;28;20457;-50
2021/01/14 11:52:24;;;;;;;2.80;2.50;;;13.20;54.70;;;;;;5074054;28;20442;-51
2021/01/14 11:54:51;;;;;;;2.60;2.37;;;13.50;54.30;;;;;;5074335;28;20468;-47
2021/01/14 11:57:19;;;;;;;2.53;2.33;;;13.70;54.00;;;;;;5074335;28;20449;-52
2021/01/14 11:59:46;;;;;;;2.30;2.20;;;13.80;53.80;;;;;;5073476;28;20503;-51
2021/01/14 12:02:13;;;;;;;3.70;2.50;;;13.60;54.20;;;;;;5073540;28;20442;-52
2021/01/14 12:04:40;;;;;;;2.53;2.33;;;13.60;54.40;;;;;;5073834;28;20479;-49
2021/01/14 12:07:07;;;;;;;1.97;1.87;;;13.50;54.50;;;;;;5074349;28;20473;-52
2021/01/14 12:09:34;;;;;;;2.30;2.10;;;13.50;54.80;;;;;;5073988;28;20480;-52
2021/01/14 12:12:01;;;;;;;2.50;2.33;;;13.70;54.50;;;;;;5073401;28;20434;-52
2021/01/14 12:14:30;;;;;;;4.90;2.37;;;13.80;54.20;;;;;;5074153;28;20441;-50
2021/01/14 12:16:57;;;;;;;2.50;2.30;;;13.80;54.20;;;;;;5073998;28;20437;-51
2021/01/14 12:19:24;;;;;;;5.83;3.33;;;14.00;53.80;;;;;;5073702;28;20511;-52
2021/01/14 12:22:01;;;;;;;2.77;2.57;;;14.20;53.60;;;;;;5073294;28;20445;-51
2021/01/14 12:24:28;;;;;;;2.27;2.17;;;14.40;53.40;;;;;;5073776;28;20433;-54
2021/01/14 12:26:55;;;;;;;3.53;2.70;;;14.50;52.80;;;;;;5073700;28;20476;-49
2021/01/14 12:29:22;;;;;;;3.93;2.50;;;14.40;53.50;;;;;;5073658;28;20446;-52
2021/01/14 12:31:49;;;;;;;2.70;2.50;;;14.40;53.10;;;;;;5072633;28;20442;-51
2021/01/14 12:34:16;;;;;;;2.80;2.60;;;14.30;53.40;;;;;;5074342;28;20472;-53
2021/01/14 12:36:43;;;;;;;4.80;2.57;;;14.60;53.10;;;;;;5073431;28;20438;-49
2021/01/14 12:39:12;;;;;;;4.00;3.03;;;14.90;52.70;;;;;;5073221;28;20468;-48
2021/01/14 12:41:39;;;;;;;3.70;2.70;;;15.00;52.70;;;;;;5072706;28;20438;-48
2021/01/14 12:44:06;;;;;;;2.70;2.50;;;15.10;52.30;;;;;;5081005;28;20502;-53
2021/01/14 12:46:34;;;;;;;4.20;2.80;;;15.20;52.10;;;;;;5093416;28;20510;-53
2021/01/14 12:49:02;;;;;;;3.23;3.03;;;15.80;51.90;;;;;;5093251;28;20518;-53
2021/01/14 12:51:29;;;;;;;2.73;2.53;;;17.70;49.50;;;;;;5094515;28;20437;-57
2021/01/14 12:53:57;;;;;;;2.93;2.70;;;21.00;45.20;;;;;;5113788;28;20475;-53
2021/01/14 12:56:24;;;;;;;3.40;3.20;;;21.30;42.40;;;;;;5114001;28;20436;-53
2021/01/14 12:58:51;;;;;;;2.87;2.60;;;20.40;42.30;;;;;;5113145;28;20481;-53